首页
METAR-TAF:

METAR-TAF

机场 :

Pecos, 得克萨斯州, 美国

纬度: 31-22-56N, 经度: 103-30-38W, 海拔: 796米

当前天气观测

该预报发布于29分钟前的01:15 UTC
风速5节,风向西
温度 37°C
湿度 5%
气压 1006 hPa
能見度: 16.1公里
天空无云

METAR: KPEQ 210115Z AUTO 27005KT 10SM CLR 37/M09 A2972 RMK AO2 T03721090

时间: 20:44 (01:44 UTC)

预报

该预报发布于2小时和24分钟前的23:20 UTC
预报有效从21日的 00点(UTC)到 21日的 24点(UTC)
风速7节,风向西转西南
能見度: 10公里
多云层高于25000英尺

TAF: KPEQ 202320Z 2100/2124 25007KT P6SM BKN250

超过4000个机场的气象观测和天气预报(METAR&TAF报告)。

可查询的气象台以黄色和红色小点在地图上表示。

将鼠标移到小点上方,可查看气象台名称。

然后点击查看天气观测和预报。

如需切换地图:点击带黑十字的绿色按钮放大地图;点击带横线的绿色按钮缩小地图;或者点击绿色箭头查看邻近地区的地图。


METAR-TAF: